createdAt,value
2022-09-20T00:02:39.159Z,1.50
2022-09-20T00:05:47.091Z,1.80
2022-09-20T00:08:50.901Z,1.57
2022-09-20T00:11:54.232Z,1.33
2022-09-20T00:14:58.744Z,1.50
2022-09-20T00:18:02.592Z,3.30
2022-09-20T00:21:06.567Z,1.40
2022-09-20T00:24:10.999Z,1.73
2022-09-20T00:27:14.148Z,1.67
2022-09-20T00:30:19.037Z,1.60
2022-09-20T00:33:22.855Z,1.50
2022-09-20T00:36:25.171Z,2.00
2022-09-20T00:39:28.680Z,1.50
2022-09-20T00:42:32.671Z,1.60
2022-09-20T00:45:37.490Z,1.90
2022-09-20T00:48:41.110Z,1.50
2022-09-20T00:51:50.778Z,1.80
2022-09-20T00:54:55.255Z,2.20
2022-09-20T00:57:59.972Z,1.60
2022-09-20T01:01:07.332Z,1.83
2022-09-20T01:04:10.670Z,1.60
2022-09-20T01:07:16.854Z,1.70
2022-09-20T01:10:20.186Z,1.50
2022-09-20T01:13:23.189Z,1.53
2022-09-20T01:16:29.363Z,1.90
2022-09-20T01:19:41.409Z,1.70
2022-09-20T01:22:55.170Z,1.90
2022-09-20T01:26:30.564Z,1.40
2022-09-20T01:29:50.914Z,2.03
2022-09-20T01:33:06.002Z,1.50
2022-09-20T01:36:12.839Z,1.60
2022-09-20T01:39:27.313Z,1.70
2022-09-20T01:42:34.835Z,1.80
2022-09-20T01:45:43.923Z,1.10
2022-09-20T01:48:49.223Z,1.73
2022-09-20T01:52:26.500Z,1.73
2022-09-20T01:55:54.786Z,1.60
2022-09-20T01:59:24.585Z,1.50
2022-09-20T02:02:50.878Z,1.83
2022-09-20T02:06:29.352Z,1.77
2022-09-20T02:10:12.942Z,1.20
2022-09-20T02:13:30.506Z,1.60
2022-09-20T02:16:50.146Z,1.80
2022-09-20T02:20:05.612Z,1.57
2022-09-20T02:23:20.951Z,1.50
2022-09-20T02:26:34.806Z,1.83
2022-09-20T02:29:48.778Z,1.80
2022-09-20T02:33:12.390Z,2.83
2022-09-20T02:36:38.031Z,5.40
2022-09-20T02:39:50.276Z,3.90
2022-09-20T02:43:03.378Z,3.20
2022-09-20T02:46:14.712Z,3.10
2022-09-20T02:49:30.470Z,2.50
2022-09-20T02:52:43.726Z,2.73
2022-09-20T02:55:55.140Z,2.70
2022-09-20T02:59:05.671Z,2.63
2022-09-20T03:02:17.285Z,2.00
2022-09-20T03:05:25.808Z,3.13
2022-09-20T03:08:38.690Z,4.53
2022-09-20T03:11:50.358Z,2.60
2022-09-20T03:15:01.927Z,3.17
2022-09-20T03:18:12.080Z,2.67
2022-09-20T03:21:29.564Z,2.70
2022-09-20T03:24:45.182Z,6.77
2022-09-20T03:27:59.781Z,2.10
2022-09-20T03:31:09.612Z,2.10
2022-09-20T03:34:22.710Z,2.03
2022-09-20T03:37:49.175Z,2.00
2022-09-20T03:41:07.830Z,1.97
2022-09-20T03:44:33.709Z,2.00
2022-09-20T03:47:58.842Z,2.60
2022-09-20T03:51:11.035Z,4.43
2022-09-20T03:54:50.246Z,2.93
2022-09-20T03:58:18.128Z,4.33
2022-09-20T04:01:39.357Z,1.83
2022-09-20T04:04:49.496Z,2.17
2022-09-20T04:08:08.016Z,3.27
2022-09-20T04:11:19.156Z,2.43
2022-09-20T04:14:31.912Z,3.90
2022-09-20T04:17:44.164Z,2.63
2022-09-20T04:20:58.754Z,4.27
2022-09-20T04:24:09.449Z,4.83
2022-09-20T04:27:16.638Z,4.57
2022-09-20T04:30:22.914Z,4.87
2022-09-20T04:33:30.502Z,2.67
2022-09-20T04:36:54.706Z,2.90
2022-09-20T04:40:09.250Z,2.80
2022-09-20T04:43:53.852Z,3.13
2022-09-20T04:47:30.198Z,3.10
2022-09-20T04:50:59.109Z,2.47
2022-09-20T04:54:35.033Z,2.50
2022-09-20T04:58:04.916Z,2.57
2022-09-20T05:01:52.297Z,2.53
2022-09-20T05:05:26.962Z,2.50
2022-09-20T05:09:09.617Z,2.57
2022-09-20T05:12:36.154Z,2.00
2022-09-20T05:15:55.553Z,2.23
2022-09-20T05:19:25.771Z,3.53
2022-09-20T05:22:58.876Z,2.20
2022-09-20T05:26:24.888Z,2.20
2022-09-20T05:29:35.564Z,2.50
2022-09-20T05:32:45.437Z,1.93
2022-09-20T05:36:02.249Z,3.83
2022-09-20T05:39:19.384Z,2.03
2022-09-20T05:42:41.450Z,1.93
2022-09-20T05:46:06.615Z,1.93
2022-09-20T05:49:22.232Z,2.67
2022-09-20T05:52:39.354Z,1.90
2022-09-20T05:55:58.832Z,4.20
2022-09-20T05:59:29.466Z,2.70
2022-09-20T06:02:44.880Z,3.27
2022-09-20T06:05:56.370Z,2.63
2022-09-20T06:09:33.866Z,2.60
2022-09-20T06:12:53.074Z,2.43
2022-09-20T06:16:01.184Z,2.20
2022-09-20T06:19:17.423Z,3.00
2022-09-20T06:22:26.304Z,1.80
2022-09-20T06:25:33.923Z,1.83
2022-09-20T06:28:43.140Z,2.00
2022-09-20T06:31:48.002Z,2.87
2022-09-20T06:34:52.513Z,2.73
2022-09-20T06:38:22.886Z,1.90
2022-09-20T06:41:32.473Z,1.70
2022-09-20T06:44:41.355Z,1.73
2022-09-20T06:47:46.168Z,3.50
2022-09-20T06:50:50.350Z,1.70
2022-09-20T06:53:55.725Z,1.50
2022-09-20T06:56:59.625Z,1.70
2022-09-20T07:00:03.282Z,1.60
2022-09-20T07:03:08.582Z,1.70
2022-09-20T07:06:12.774Z,1.60
2022-09-20T07:09:16.036Z,1.50
2022-09-20T07:12:19.222Z,1.20
2022-09-20T07:15:22.937Z,1.20
2022-09-20T07:18:27.463Z,2.63
2022-09-20T07:21:30.567Z,2.70
2022-09-20T07:24:33.688Z,1.60
2022-09-20T07:27:39.668Z,1.30
2022-09-20T07:30:44.032Z,1.83
2022-09-20T07:33:48.706Z,1.20
2022-09-20T07:36:52.367Z,1.47
2022-09-20T07:39:55.510Z,2.17
2022-09-20T07:42:58.917Z,1.80
2022-09-20T07:46:02.809Z,1.30
2022-09-20T07:49:09.230Z,1.57
2022-09-20T07:52:12.523Z,1.00
2022-09-20T07:55:16.433Z,1.77
2022-09-20T07:58:19.962Z,0.90
2022-09-20T08:01:25.502Z,1.33
2022-09-20T08:04:30.079Z,4.30
2022-09-20T08:07:33.506Z,3.40
2022-09-20T08:10:36.620Z,2.77
2022-09-20T08:17:03.882Z,1.93
2022-09-20T08:20:09.753Z,2.50
2022-09-20T08:23:23.560Z,2.27
2022-09-20T08:26:29.388Z,1.80
2022-09-20T08:29:32.985Z,2.00
2022-09-20T08:32:36.202Z,1.60
2022-09-20T08:35:40.858Z,1.50
2022-09-20T08:42:15.627Z,1.40
2022-09-20T08:45:23.246Z,1.50
2022-09-20T08:48:36.738Z,1.53
2022-09-20T08:51:48.601Z,1.60
2022-09-20T08:54:52.645Z,1.60
2022-09-20T08:57:58.436Z,1.17
2022-09-20T09:01:02.282Z,1.20
2022-09-20T09:04:14.863Z,1.30
2022-09-20T09:07:22.382Z,1.80
2022-09-20T09:10:27.334Z,3.03
2022-09-20T09:13:35.786Z,1.60
2022-09-20T09:16:39.436Z,1.10
2022-09-20T09:19:48.527Z,0.80
2022-09-20T09:23:02.344Z,1.23
2022-09-20T09:26:07.222Z,1.50
2022-09-20T09:29:17.798Z,1.40
2022-09-20T09:32:24.434Z,1.10
2022-09-20T09:35:31.992Z,1.30
2022-09-20T09:38:38.273Z,1.53
2022-09-20T09:41:41.863Z,0.90
2022-09-20T09:44:50.744Z,1.13
2022-09-20T09:47:54.423Z,0.90
2022-09-20T09:51:12.536Z,1.20
2022-09-20T09:54:20.155Z,1.87
2022-09-20T09:57:39.893Z,1.20
2022-09-20T10:00:47.239Z,1.43
2022-09-20T10:04:00.785Z,0.80
2022-09-20T10:07:11.070Z,1.10
2022-09-20T10:10:30.445Z,1.10
2022-09-20T10:13:40.888Z,1.23
2022-09-20T10:16:58.392Z,1.30
2022-09-20T10:20:28.832Z,1.43
2022-09-20T10:24:04.847Z,1.50
2022-09-20T10:27:28.221Z,1.20
2022-09-20T10:30:38.051Z,1.33
2022-09-20T10:33:53.045Z,1.50
2022-09-20T10:36:59.485Z,1.80
2022-09-20T10:40:18.224Z,1.50
2022-09-20T10:43:38.579Z,1.63
2022-09-20T10:46:54.767Z,1.73
2022-09-20T10:50:11.547Z,1.50
2022-09-20T10:53:27.294Z,2.00
2022-09-20T10:56:34.878Z,2.43
2022-09-20T10:59:48.556Z,1.90
2022-09-20T11:03:05.795Z,1.87
2022-09-20T11:06:17.792Z,1.70
2022-09-20T11:09:27.064Z,2.20
2022-09-20T11:12:39.900Z,2.10
2022-09-20T11:15:50.683Z,2.50
2022-09-20T11:19:00.543Z,2.00
2022-09-20T11:22:09.677Z,1.93
2022-09-20T11:25:21.588Z,2.57
2022-09-20T11:28:33.611Z,2.47
2022-09-20T11:31:44.405Z,1.93
2022-09-20T11:34:53.997Z,2.30
2022-09-20T11:38:11.761Z,2.70
2022-09-20T11:41:20.795Z,2.63
2022-09-20T11:44:25.304Z,2.90
2022-09-20T11:47:53.925Z,2.53
2022-09-20T11:51:32.678Z,2.80
2022-09-20T11:55:08.467Z,2.40
2022-09-20T11:58:16.794Z,2.87
2022-09-20T12:01:30.103Z,3.20
2022-09-20T12:04:38.350Z,2.70
2022-09-20T12:07:46.931Z,2.50
2022-09-20T12:10:59.117Z,2.60
2022-09-20T12:14:07.515Z,2.77
2022-09-20T12:17:44.437Z,2.40
2022-09-20T12:21:05.072Z,2.00
2022-09-20T12:24:24.316Z,2.83
2022-09-20T12:27:58.549Z,2.50
2022-09-20T12:31:34.911Z,2.37
2022-09-20T12:34:39.479Z,2.40
2022-09-20T12:37:46.831Z,2.37
2022-09-20T12:41:04.593Z,2.37
2022-09-20T12:44:25.602Z,2.40
2022-09-20T12:47:31.474Z,2.80
2022-09-20T12:50:52.262Z,2.43
2022-09-20T12:54:08.225Z,2.40
2022-09-20T12:57:19.751Z,2.40
2022-09-20T13:00:36.370Z,2.60
2022-09-20T13:03:42.116Z,2.07
2022-09-20T13:06:45.603Z,2.33
2022-09-20T13:09:51.383Z,1.90
2022-09-20T13:13:00.448Z,2.50
2022-09-20T13:16:06.107Z,2.70
2022-09-20T13:19:19.295Z,2.40
2022-09-20T13:22:26.737Z,2.33
2022-09-20T13:25:32.356Z,2.10
2022-09-20T13:28:41.687Z,2.57
2022-09-20T13:31:47.157Z,2.23
2022-09-20T13:35:06.873Z,2.60
2022-09-20T13:38:11.753Z,3.63
2022-09-20T13:41:16.911Z,2.10
2022-09-20T13:44:25.576Z,2.40
2022-09-20T13:47:30.529Z,1.97
2022-09-20T13:50:40.951Z,2.03
2022-09-20T13:53:48.218Z,2.20
2022-09-20T13:56:54.163Z,1.90
2022-09-20T14:00:00.424Z,2.50
2022-09-20T14:03:03.898Z,2.10
2022-09-20T14:06:12.309Z,2.03
2022-09-20T14:09:22.857Z,2.27
2022-09-20T14:12:28.821Z,2.17
2022-09-20T14:15:37.933Z,2.47
2022-09-20T14:18:42.621Z,1.60
2022-09-20T14:21:46.303Z,1.60
2022-09-20T14:25:01.870Z,1.67
2022-09-20T14:28:24.595Z,1.70
2022-09-20T14:31:36.707Z,1.60
2022-09-20T14:34:42.535Z,1.83
2022-09-20T14:37:50.063Z,2.17
2022-09-20T14:40:54.010Z,1.87
2022-09-20T14:44:00.703Z,1.50
2022-09-20T14:47:15.713Z,1.20
2022-09-20T14:50:26.145Z,1.50
2022-09-20T14:53:29.703Z,2.10
2022-09-20T14:56:40.262Z,1.77
2022-09-20T14:59:45.005Z,2.50
2022-09-20T15:02:48.611Z,1.00
2022-09-20T15:05:52.094Z,1.50
2022-09-20T15:08:55.219Z,1.60
2022-09-20T15:12:06.432Z,1.10
2022-09-20T15:15:15.585Z,2.27
2022-09-20T15:18:22.288Z,1.97
2022-09-20T15:21:25.355Z,1.50
2022-09-20T15:24:29.010Z,1.70
2022-09-20T15:27:32.544Z,2.63
2022-09-20T15:30:38.922Z,1.80
2022-09-20T15:33:42.497Z,1.63
2022-09-20T15:36:45.953Z,1.77
2022-09-20T15:39:49.683Z,1.63
2022-09-20T15:42:59.440Z,1.50
2022-09-20T15:46:19.379Z,1.40
2022-09-20T15:49:22.884Z,2.90
2022-09-20T15:52:28.717Z,1.50
2022-09-20T15:55:31.777Z,1.40
2022-09-20T15:58:36.744Z,2.77
2022-09-20T16:01:42.863Z,2.37
2022-09-20T16:04:46.191Z,3.00
2022-09-20T16:07:49.623Z,3.20
2022-09-20T16:10:57.957Z,5.60
2022-09-20T16:14:02.103Z,3.03
2022-09-20T16:17:06.623Z,2.60
2022-09-20T16:20:09.577Z,1.80
2022-09-20T16:23:15.000Z,1.67
2022-09-20T16:26:19.775Z,1.40
2022-09-20T16:29:23.605Z,1.77
2022-09-20T16:32:28.183Z,3.93
2022-09-20T16:35:31.496Z,3.43
2022-09-20T16:38:35.079Z,3.40
2022-09-20T16:41:39.651Z,4.73
2022-09-20T16:44:50.487Z,4.30
2022-09-20T16:47:59.425Z,1.70
2022-09-20T16:51:04.895Z,2.07
2022-09-20T16:54:12.780Z,1.57
2022-09-20T16:57:22.935Z,1.60
2022-09-20T17:00:27.239Z,1.80
2022-09-20T17:03:37.083Z,2.10
2022-09-20T17:06:43.671Z,3.23
2022-09-20T17:09:47.807Z,2.87
2022-09-20T17:12:57.910Z,2.27
2022-09-20T17:16:02.612Z,1.93
2022-09-20T17:19:15.999Z,1.83
2022-09-20T17:22:20.159Z,2.00
2022-09-20T17:25:27.995Z,1.87
2022-09-20T17:28:36.573Z,2.20
2022-09-20T17:31:46.239Z,2.13
2022-09-20T17:34:55.598Z,2.70
2022-09-20T17:37:59.867Z,3.90
2022-09-20T17:41:06.032Z,3.40
2022-09-20T17:44:12.447Z,5.43
2022-09-20T17:47:22.057Z,2.80
2022-09-20T17:50:28.458Z,3.33
2022-09-20T17:53:34.817Z,1.97
2022-09-20T17:56:42.929Z,2.37
2022-09-20T17:59:47.241Z,4.00
2022-09-20T18:02:51.534Z,2.33
2022-09-20T18:06:01.349Z,1.90
2022-09-20T18:09:11.217Z,2.80
2022-09-20T18:12:19.816Z,2.83
2022-09-20T18:15:27.082Z,3.83
2022-09-20T18:18:34.801Z,1.90
2022-09-20T18:21:41.703Z,2.00
2022-09-20T18:24:45.925Z,2.57
2022-09-20T18:27:51.403Z,3.07
2022-09-20T18:31:03.143Z,3.00
2022-09-20T18:34:08.410Z,3.37
2022-09-20T18:37:18.509Z,3.20
2022-09-20T18:40:24.146Z,2.70
2022-09-20T18:43:30.529Z,3.50
2022-09-20T18:46:40.948Z,3.37
2022-09-20T18:49:44.988Z,3.53
2022-09-20T18:52:51.253Z,5.27
2022-09-20T18:55:56.844Z,4.30
2022-09-20T18:59:04.318Z,5.37
2022-09-20T19:02:26.273Z,5.10
2022-09-20T19:05:36.562Z,5.10
2022-09-20T19:08:52.416Z,5.80
2022-09-20T19:12:04.676Z,6.17
2022-09-20T19:15:23.788Z,6.23
2022-09-20T19:18:45.470Z,10.20
2022-09-20T19:22:00.773Z,15.07
2022-09-20T19:25:26.030Z,13.73
2022-09-20T19:28:31.190Z,13.70
2022-09-20T19:31:36.810Z,12.63
2022-09-20T19:34:46.041Z,11.13
2022-09-20T19:38:05.154Z,12.47
2022-09-20T19:41:28.060Z,11.10
2022-09-20T19:44:42.648Z,11.60
2022-09-20T19:47:57.340Z,11.17
2022-09-20T19:51:06.167Z,11.03
2022-09-20T19:54:20.870Z,11.33
2022-09-20T19:57:40.767Z,11.73
2022-09-20T20:00:47.605Z,11.00
2022-09-20T20:03:55.758Z,10.53
2022-09-20T20:07:11.612Z,10.40
2022-09-20T20:10:25.454Z,10.63
2022-09-20T20:13:57.746Z,10.03
2022-09-20T20:17:13.200Z,10.30
2022-09-20T20:20:25.530Z,9.83
2022-09-20T20:23:59.810Z,10.57
2022-09-20T20:27:04.687Z,9.33
2022-09-20T20:30:12.600Z,10.90
2022-09-20T20:33:20.704Z,9.47
2022-09-20T20:36:25.108Z,9.93
2022-09-20T20:39:33.452Z,9.87
2022-09-20T20:42:37.544Z,9.43
2022-09-20T20:45:52.418Z,8.80
2022-09-20T20:48:57.461Z,8.10
2022-09-20T20:52:05.273Z,8.80
2022-09-20T20:55:09.130Z,8.63
2022-09-20T20:58:16.957Z,8.33
2022-09-20T21:01:28.558Z,8.63
2022-09-20T21:04:33.972Z,7.97
2022-09-20T21:07:38.455Z,7.60
2022-09-20T21:10:41.492Z,8.07
2022-09-20T21:13:50.147Z,7.47
2022-09-20T21:16:58.314Z,7.60
2022-09-20T21:20:06.567Z,7.03
2022-09-20T21:23:11.016Z,7.03
2022-09-20T21:26:16.682Z,6.70
2022-09-20T21:29:20.433Z,6.83
2022-09-20T21:32:29.630Z,7.00
2022-09-20T21:35:37.429Z,6.47
2022-09-20T21:38:48.872Z,6.23
2022-09-20T21:41:53.524Z,6.50
2022-09-20T21:45:03.532Z,6.67
2022-09-20T21:48:09.478Z,6.73
2022-09-20T21:51:15.331Z,6.27
2022-09-20T21:54:20.094Z,6.17
2022-09-20T21:57:24.476Z,5.70
2022-09-20T22:00:29.258Z,6.77
2022-09-20T22:03:40.191Z,6.60
2022-09-20T22:06:48.186Z,5.27
2022-09-20T22:09:51.314Z,5.93
2022-09-20T22:12:59.644Z,5.83
2022-09-20T22:16:08.054Z,6.17
2022-09-20T22:19:14.234Z,5.80
2022-09-20T22:22:22.219Z,5.97
2022-09-20T22:25:25.454Z,5.50
2022-09-20T22:28:28.485Z,5.53
2022-09-20T22:31:33.934Z,5.53
2022-09-20T22:34:38.595Z,5.90
2022-09-20T22:37:42.178Z,6.07
2022-09-20T22:40:54.942Z,5.67
2022-09-20T22:43:58.608Z,6.00
2022-09-20T22:47:03.733Z,5.67
2022-09-20T22:50:10.285Z,5.23
2022-09-20T22:53:17.059Z,5.43
2022-09-20T22:56:24.591Z,5.53
2022-09-20T22:59:29.728Z,5.20
2022-09-20T23:02:38.542Z,5.33
2022-09-20T23:05:45.089Z,5.70
2022-09-20T23:08:50.120Z,5.70
2022-09-20T23:11:54.860Z,5.73
2022-09-20T23:14:59.256Z,6.13
2022-09-20T23:18:02.378Z,4.70
2022-09-20T23:21:08.449Z,4.90
2022-09-20T23:24:18.240Z,4.70
2022-09-20T23:27:26.808Z,5.30
2022-09-20T23:30:35.317Z,5.03
2022-09-20T23:33:43.536Z,4.67
2022-09-20T23:36:55.398Z,4.80
2022-09-20T23:40:01.551Z,4.87
2022-09-20T23:43:06.352Z,4.53
2022-09-20T23:46:10.875Z,4.60
2022-09-20T23:49:15.163Z,4.43
2022-09-20T23:52:22.676Z,4.93
2022-09-20T23:55:28.278Z,4.40
2022-09-20T23:58:34.516Z,4.30
